Time;durP1;ratioP1;P1;durP2;ratioP2;P2;SDS_P1;SDS_P2;PMS_P1;PMS_P2;Temp;Humidity;BMP_temperature;BMP_pressure;BME280_temperature;BME280_humidity;BME280_pressure;Samples;Min_cycle;Max_cycle;Signal;HPM_P1;HPM_P2
2021/01/27 00:09:28;;;;;;;9.18;4.80;;;;;;;0.73;100.00;99525.78;10592211;84;21135;-93
2021/01/27 00:24:33;;;;;;;9.30;5.50;;;;;;;0.77;100.00;99527.26;10557163;84;21128;-92
2021/01/27 00:39:37;;;;;;;16.05;8.93;;;;;;;0.86;100.00;99534.93;10557055;84;21152;-92
2021/01/27 00:54:41;;;;;;;7.67;4.65;;;;;;;0.92;100.00;99531.96;10536355;84;21136;-92
2021/01/27 01:09:45;;;;;;;13.03;6.60;;;;;;;0.88;100.00;99533.54;10582356;82;21140;-94
2021/01/27 01:24:50;;;;;;;4.03;2.27;;;;;;;0.88;100.00;99533.54;10429805;84;21143;-93
2021/01/27 01:39:54;;;;;;;11.33;5.08;;;;;;;0.65;100.00;99535.74;10449471;84;21122;-93
2021/01/27 01:54:58;;;;;;;7.33;3.85;;;;;;;0.67;100.00;99546.79;10619230;84;21115;-93
2021/01/27 02:10:04;;;;;;;9.25;3.55;;;;;;;0.58;100.00;99548.62;10414724;84;21229;-94
2021/01/27 02:25:56;;;;;;;4.40;2.90;;;;;;;0.57;100.00;99550.83;10247004;85;21212;-93
2021/01/27 02:41:05;;;;;;;9.23;4.47;;;;;;;0.67;100.00;99567.45;10247057;86;21375;-91
2021/01/27 02:56:19;;;;;;;5.72;3.45;;;;;;;0.68;100.00;99569.59;10419909;84;21567;-91
2021/01/27 03:11:27;;;;;;;4.70;2.77;;;;;;;0.56;100.00;99571.95;10424110;84;21130;-93
2021/01/27 03:26:41;;;;;;;12.15;3.72;;;;;;;0.51;100.00;99584.75;10435530;84;21229;-93
2021/01/27 03:41:57;;;;;;;4.90;2.45;;;;;;;0.43;100.00;99598.91;10238991;85;21202;-93
2021/01/27 03:57:17;;;;;;;5.63;2.97;;;;;;;0.61;100.00;99597.51;9793643;90;21173;-93
2021/01/27 04:12:21;;;;;;;9.90;4.10;;;;;;;0.52;100.00;99608.36;10390658;83;21372;-92
2021/01/27 04:27:26;;;;;;;9.28;4.42;;;;;;;0.55;100.00;99621.09;10473851;84;21292;-92
2021/01/27 04:42:30;;;;;;;22.55;10.45;;;;;;;0.58;100.00;99621.75;10523376;83;21571;-87
2021/01/27 04:57:59;;;;;;;7.42;4.10;;;;;;;0.55;100.00;99630.13;10561974;82;21691;-87
2021/01/27 05:13:10;;;;;;;10.03;4.12;;;;;;;0.41;100.00;99629.59;10555665;82;21188;-87
2021/01/27 05:28:19;;;;;;;16.27;9.40;;;;;;;0.24;100.00;99631.39;10574365;84;21165;-87
2021/01/27 05:43:26;;;;;;;14.73;5.58;;;;;;;0.19;100.00;99646.75;10416577;85;21240;-88
2021/01/27 05:58:33;;;;;;;14.67;6.10;;;;;;;0.19;100.00;99651.44;10170297;87;21179;-87
2021/01/27 06:13:37;;;;;;;9.25;5.05;;;;;;;0.19;100.00;99655.78;10423211;85;21214;-87
2021/01/27 06:29:41;;;;;;;11.40;4.30;;;;;;;0.13;100.00;99683.58;10650864;84;21122;-88
2021/01/27 06:45:13;;;;;;;44.15;17.95;;;;;;;0.14;100.00;99690.38;10160731;86;21166;-88
2021/01/27 07:01:00;;;;;;;9.43;5.17;;;;;;;0.21;100.00;99705.09;10033914;87;22227;-88
2021/01/27 07:16:10;;;;;;;82.27;26.33;;;;;;;0.10;100.00;99709.52;10590766;83;21264;-87
2021/01/27 07:31:19;;;;;;;319.73;149.20;;;;;;;0.30;100.00;99712.77;10591828;84;21299;-87
2021/01/27 07:46:30;;;;;;;246.32;89.72;;;;;;;0.22;100.00;99711.89;10525050;84;21185;-87
2021/01/27 08:01:40;;;;;;;17.70;8.28;;;;;;;0.24;100.00;99714.38;10563382;84;21532;-88
2021/01/27 08:16:47;;;;;;;57.43;31.42;;;;;;;0.23;100.00;99729.52;10513372;84;21142;-88
2021/01/27 08:32:26;;;;;;;111.50;45.52;;;;;;;0.42;100.00;99748.69;10452501;85;21552;-84
2021/01/27 08:47:39;;;;;;;37.60;16.02;;;;;;;0.49;100.00;99753.91;10082133;87;21190;-86
2021/01/27 09:02:50;;;;;;;10.88;6.80;;;;;;;0.74;100.00;99768.88;10078667;87;21142;-85
2021/01/27 09:17:59;;;;;;;23.47;11.22;;;;;;;0.58;100.00;99774.49;10113657;86;21217;-86
2021/01/27 09:33:13;;;;;;;13.13;7.37;;;;;;;0.72;100.00;99790.53;10442949;85;21174;-87
2021/01/27 09:48:21;;;;;;;143.72;41.37;;;;;;;0.88;100.00;99792.63;10450194;85;21268;-85
2021/01/27 10:03:31;;;;;;;22.10;9.75;;;;;;;1.01;100.00;99797.95;10547889;84;21304;-91
2021/01/27 10:18:38;;;;;;;114.37;41.80;;;;;;;1.08;100.00;99786.38;10436709;84;21435;-88
2021/01/27 10:33:50;;;;;;;145.20;61.33;;;;;;;1.56;100.00;99798.29;10404940;85;21192;-88
2021/01/27 10:48:56;;;;;;;23.18;10.65;;;;;;;1.54;100.00;99806.61;10413402;85;21788;-89
2021/01/27 11:04:01;;;;;;;56.60;30.30;;;;;;;1.86;100.00;99802.59;10449751;84;21752;-87
2021/01/27 11:19:05;;;;;;;22.58;12.15;;;;;;;1.64;100.00;99803.87;10412208;84;21123;-88
2021/01/27 11:34:11;;;;;;;61.25;26.48;;;;;;;2.13;100.00;99813.88;10375045;85;21120;-90
2021/01/27 11:49:18;;;;;;;30.50;14.58;;;;;;;2.06;100.00;99819.06;10403004;85;21104;-87
2021/01/27 12:04:22;;;;;;;30.30;13.20;;;;;;;2.08;100.00;99822.37;10427173;85;21142;-86
2021/01/27 12:19:29;;;;;;;21.33;10.35;;;;;;;2.34;100.00;99829.03;10441271;84;21297;-86
2021/01/27 12:34:35;;;;;;;167.32;61.40;;;;;;;2.91;100.00;99822.91;10383755;85;21158;-94
2021/01/27 12:49:40;;;;;;;89.67;31.53;;;;;;;2.91;100.00;99822.91;10250148;87;21304;-89
2021/01/27 13:04:44;;;;;;;42.67;19.05;;;;;;;3.12;100.00;99832.36;10391961;85;21173;-90
2021/01/27 13:19:48;;;;;;;51.02;18.35;;;;;;;3.25;100.00;99845.85;10418712;84;21527;-92
2021/01/27 13:34:53;;;;;;;143.68;48.17;;;;;;;3.23;100.00;99847.22;10258293;87;21134;-90
2021/01/27 13:49:57;;;;;;;115.55;46.95;;;;;;;2.77;100.00;99854.88;10395264;85;21698;-87
2021/01/27 14:05:02;;;;;;;24.32;12.23;;;;;;;2.77;100.00;99854.88;10342764;85;21288;-87
2021/01/27 14:20:12;;;;;;;37.00;13.30;;;;;;;2.78;100.00;99883.72;10246711;85;21349;-93
2021/01/27 14:35:20;;;;;;;78.97;29.98;;;;;;;2.78;100.00;99883.72;10461946;85;21662;-86
2021/01/27 14:50:24;;;;;;;57.33;20.70;;;;;;;2.66;100.00;99876.24;10391043;85;21218;-96
2021/01/27 15:05:29;;;;;;;97.90;38.90;;;;;;;2.62;100.00;99898.56;10359882;85;21183;-89
2021/01/27 15:20:33;;;;;;;97.50;42.35;;;;;;;2.34;100.00;99898.94;10042600;86;21143;-85
2021/01/27 15:35:37;;;;;;;52.20;23.75;;;;;;;1.92;99.76;99905.25;10121370;87;21193;-85
2021/01/27 15:50:43;;;;;;;169.25;58.20;;;;;;;1.15;100.00;99918.16;10469225;85;21251;-84
2021/01/27 16:05:47;;;;;;;210.08;74.12;;;;;;;1.15;100.00;99918.16;10442028;85;21593;-84
2021/01/27 16:20:53;;;;;;;215.28;70.45;;;;;;;0.91;100.00;99931.95;10432354;84;21142;-85
2021/01/27 16:36:02;;;;;;;424.52;145.07;;;;;;;0.68;100.00;99926.71;10465434;84;21139;-85
2021/01/27 16:51:07;;;;;;;300.15;100.10;;;;;;;0.49;100.00;99917.34;10518636;84;21143;-84
2021/01/27 17:06:12;;;;;;;207.83;66.47;;;;;;;0.28;100.00;99915.42;10538397;84;21143;-84
2021/01/27 17:21:16;;;;;;;169.60;74.22;;;;;;;-0.05;100.00;99921.84;10520456;84;21131;-84
2021/01/27 17:36:22;;;;;;;262.17;92.62;;;;;;;-0.36;100.00;99918.16;10540610;84;21170;-81
2021/01/27 17:51:27;;;;;;;;;;;;;;;-0.41;100.00;99921.42;10508486;84;21631;-81
2021/01/27 18:06:32;;;;;;;377.87;130.43;;;;;;;-0.52;100.00;99913.73;10501726;84;20173;-81
2021/01/27 18:21:36;;;;;;;326.67;99.87;;;;;;;-0.59;100.00;99913.67;10538769;84;21293;-84
2021/01/27 18:36:45;;;;;;;323.18;112.47;;;;;;;-0.76;100.00;99917.50;10487564;84;21202;-84
2021/01/27 18:51:50;;;;;;;152.68;52.88;;;;;;;-0.91;100.00;99905.72;10017321;86;21202;-85
2021/01/27 19:06:54;;;;;;;167.90;59.60;;;;;;;-1.14;100.00;99914.48;10367153;84;21718;-81
2021/01/27 19:21:58;;;;;;;174.97;57.35;;;;;;;-1.24;100.00;99908.93;10540439;83;21199;-82
2021/01/27 19:37:04;;;;;;;126.62;50.08;;;;;;;-1.21;100.00;99904.09;10536830;84;21134;-83
2021/01/27 19:52:09;;;;;;;114.37;44.53;;;;;;;-0.93;100.00;99915.24;10540995;84;21257;-85
2021/01/27 20:07:15;;;;;;;177.30;59.25;;;;;;;-0.60;100.00;99919.72;10540935;84;21652;-83
2021/01/27 20:22:20;;;;;;;235.55;72.82;;;;;;;-0.39;100.00;99910.59;10477348;83;21512;-82
2021/01/27 20:37:27;;;;;;;66.17;28.13;;;;;;;-0.14;100.00;99906.81;10423105;85;21035;-86
2021/01/27 20:52:33;;;;;;;158.97;55.97;;;;;;;-0.04;100.00;99897.69;10431003;85;21141;-85
2021/01/27 21:07:41;;;;;;;192.92;59.25;;;;;;;0.14;100.00;99913.53;10432854;85;21717;-89
2021/01/27 21:22:48;;;;;;;47.08;22.27;;;;;;;0.36;100.00;99901.27;10247279;87;22201;-84
2021/01/27 21:37:54;;;;;;;127.05;43.38;;;;;;;0.41;100.00;99900.58;10352454;84;21125;-83
2021/01/27 21:52:59;;;;;;;55.07;21.93;;;;;;;0.68;100.00;99902.18;10300275;85;21097;-83
2021/01/27 22:08:06;;;;;;;42.67;16.62;;;;;;;0.59;100.00;99900.91;10373626;85;21509;-83
2021/01/27 22:23:11;;;;;;;68.42;26.50;;;;;;;0.59;100.00;99916.86;10526612;84;21438;-83
2021/01/27 22:38:16;;;;;;;101.20;30.40;;;;;;;0.73;100.00;99904.53;10486515;84;21042;-84
2021/01/27 22:53:21;;;;;;;49.15;20.85;;;;;;;0.72;100.00;99912.72;10445896;84;21110;-83
2021/01/27 23:08:28;;;;;;;40.45;16.62;;;;;;;0.74;100.00;99912.19;10387845;84;21055;-84
2021/01/27 23:23:37;;;;;;;96.85;30.88;;;;;;;0.80;100.00;99906.68;10338567;84;21134;-84
2021/01/27 23:38:42;;;;;;;54.73;19.55;;;;;;;0.78;100.00;99907.67;10106751;87;21571;-83
2021/01/27 23:53:46;;;;;;;44.33;16.15;;;;;;;0.75;100.00;99886.75;10297571;85;21624;-83
